sensor_id;sensor_type;location;lat;lon;timestamp;P1;durP1;ratioP1;P2;durP2;ratioP2
7729;SDS011;3908;52.310;7.230;2023-01-26T00:00:23;124.80;;;36.07;;
7729;SDS011;3908;52.310;7.230;2023-01-26T00:03:10;114.93;;;36.77;;
7729;SDS011;3908;52.310;7.230;2023-01-26T00:06:03;120.20;;;36.60;;
7729;SDS011;3908;52.310;7.230;2023-01-26T00:08:53;121.90;;;36.03;;
7729;SDS011;3908;52.310;7.230;2023-01-26T00:11:42;133.33;;;37.73;;
7729;SDS011;3908;52.310;7.230;2023-01-26T00:14:29;110.27;;;35.10;;
7729;SDS011;3908;52.310;7.230;2023-01-26T00:17:35;130.97;;;34.90;;
7729;SDS011;3908;52.310;7.230;2023-01-26T00:20:22;119.23;;;36.33;;
7729;SDS011;3908;52.310;7.230;2023-01-26T00:23:09;129.17;;;38.13;;
7729;SDS011;3908;52.310;7.230;2023-01-26T00:26:05;114.77;;;33.10;;
7729;SDS011;3908;52.310;7.230;2023-01-26T00:28:53;132.97;;;36.60;;
7729;SDS011;3908;52.310;7.230;2023-01-26T00:31:41;130.57;;;37.17;;
7729;SDS011;3908;52.310;7.230;2023-01-26T00:34:32;117.50;;;36.60;;
7729;SDS011;3908;52.310;7.230;2023-01-26T00:37:19;121.93;;;37.07;;
7729;SDS011;3908;52.310;7.230;2023-01-26T00:40:13;122.20;;;34.47;;
7729;SDS011;3908;52.310;7.230;2023-01-26T00:43:03;123.70;;;34.73;;
7729;SDS011;3908;52.310;7.230;2023-01-26T00:45:50;124.13;;;35.37;;
7729;SDS011;3908;52.310;7.230;2023-01-26T00:48:38;109.13;;;35.57;;
7729;SDS011;3908;52.310;7.230;2023-01-26T00:51:26;121.30;;;35.20;;
7729;SDS011;3908;52.310;7.230;2023-01-26T00:54:14;129.57;;;33.93;;
7729;SDS011;3908;52.310;7.230;2023-01-26T00:57:01;107.07;;;33.00;;
7729;SDS011;3908;52.310;7.230;2023-01-26T00:59:53;110.83;;;33.53;;
7729;SDS011;3908;52.310;7.230;2023-01-26T01:02:41;105.67;;;33.17;;
7729;SDS011;3908;52.310;7.230;2023-01-26T01:05:29;111.80;;;32.03;;
7729;SDS011;3908;52.310;7.230;2023-01-26T01:08:19;111.30;;;33.97;;
7729;SDS011;3908;52.310;7.230;2023-01-26T01:11:07;103.47;;;32.03;;
7729;SDS011;3908;52.310;7.230;2023-01-26T01:13:55;112.40;;;31.73;;
7729;SDS011;3908;52.310;7.230;2023-01-26T01:16:42;100.73;;;32.67;;
7729;SDS011;3908;52.310;7.230;2023-01-26T01:19:31;97.30;;;31.13;;
7729;SDS011;3908;52.310;7.230;2023-01-26T01:22:18;105.93;;;31.60;;
7729;SDS011;3908;52.310;7.230;2023-01-26T01:25:07;116.17;;;32.53;;
7729;SDS011;3908;52.310;7.230;2023-01-26T01:27:57;97.30;;;30.20;;
7729;SDS011;3908;52.310;7.230;2023-01-26T01:30:44;106.70;;;31.27;;
7729;SDS011;3908;52.310;7.230;2023-01-26T01:33:31;99.53;;;30.33;;
7729;SDS011;3908;52.310;7.230;2023-01-26T01:36:19;89.63;;;30.27;;
7729;SDS011;3908;52.310;7.230;2023-01-26T01:39:07;96.40;;;27.87;;
7729;SDS011;3908;52.310;7.230;2023-01-26T01:41:56;97.20;;;29.33;;
7729;SDS011;3908;52.310;7.230;2023-01-26T01:44:44;108.33;;;30.90;;
7729;SDS011;3908;52.310;7.230;2023-01-26T01:47:52;90.43;;;29.60;;
7729;SDS011;3908;52.310;7.230;2023-01-26T01:50:42;94.57;;;26.40;;
7729;SDS011;3908;52.310;7.230;2023-01-26T01:53:35;106.47;;;31.20;;
7729;SDS011;3908;52.310;7.230;2023-01-26T01:56:29;94.40;;;28.70;;
7729;SDS011;3908;52.310;7.230;2023-01-26T01:59:23;95.13;;;29.53;;
7729;SDS011;3908;52.310;7.230;2023-01-26T02:02:11;89.20;;;29.20;;
7729;SDS011;3908;52.310;7.230;2023-01-26T02:05:01;79.67;;;28.13;;
7729;SDS011;3908;52.310;7.230;2023-01-26T02:07:54;82.97;;;27.13;;
7729;SDS011;3908;52.310;7.230;2023-01-26T02:10:42;95.33;;;27.63;;
7729;SDS011;3908;52.310;7.230;2023-01-26T02:13:33;96.10;;;28.10;;
7729;SDS011;3908;52.310;7.230;2023-01-26T02:16:28;83.80;;;28.30;;
7729;SDS011;3908;52.310;7.230;2023-01-26T02:19:17;88.40;;;28.07;;
7729;SDS011;3908;52.310;7.230;2023-01-26T02:22:13;88.10;;;29.97;;
7729;SDS011;3908;52.310;7.230;2023-01-26T02:25:18;82.67;;;27.77;;
7729;SDS011;3908;52.310;7.230;2023-01-26T02:28:09;88.53;;;28.50;;
7729;SDS011;3908;52.310;7.230;2023-01-26T02:30:56;78.47;;;26.77;;
7729;SDS011;3908;52.310;7.230;2023-01-26T02:33:44;79.27;;;26.73;;
7729;SDS011;3908;52.310;7.230;2023-01-26T02:36:32;85.30;;;27.97;;
7729;SDS011;3908;52.310;7.230;2023-01-26T02:39:21;79.83;;;26.23;;
7729;SDS011;3908;52.310;7.230;2023-01-26T02:42:22;87.17;;;28.97;;
7729;SDS011;3908;52.310;7.230;2023-01-26T02:48:30;81.70;;;28.80;;
7729;SDS011;3908;52.310;7.230;2023-01-26T02:51:36;74.43;;;25.53;;
7729;SDS011;3908;52.310;7.230;2023-01-26T02:54:26;81.23;;;25.03;;
7729;SDS011;3908;52.310;7.230;2023-01-26T03:00:44;66.13;;;22.53;;
7729;SDS011;3908;52.310;7.230;2023-01-26T03:03:33;76.73;;;25.10;;
7729;SDS011;3908;52.310;7.230;2023-01-26T03:06:30;72.23;;;26.03;;
7729;SDS011;3908;52.310;7.230;2023-01-26T03:09:19;74.93;;;26.37;;
7729;SDS011;3908;52.310;7.230;2023-01-26T03:12:08;66.50;;;25.70;;
7729;SDS011;3908;52.310;7.230;2023-01-26T03:14:55;71.77;;;24.77;;
7729;SDS011;3908;52.310;7.230;2023-01-26T03:18:01;72.07;;;24.43;;
7729;SDS011;3908;52.310;7.230;2023-01-26T03:21:09;70.03;;;24.13;;
7729;SDS011;3908;52.310;7.230;2023-01-26T03:24:16;75.37;;;24.13;;
7729;SDS011;3908;52.310;7.230;2023-01-26T03:27:20;68.87;;;23.27;;
7729;SDS011;3908;52.310;7.230;2023-01-26T03:30:14;63.13;;;23.37;;
7729;SDS011;3908;52.310;7.230;2023-01-26T03:33:05;70.90;;;24.90;;
7729;SDS011;3908;52.310;7.230;2023-01-26T03:35:52;65.47;;;23.23;;
7729;SDS011;3908;52.310;7.230;2023-01-26T03:38:43;64.27;;;22.13;;
7729;SDS011;3908;52.310;7.230;2023-01-26T03:41:33;67.53;;;23.50;;
7729;SDS011;3908;52.310;7.230;2023-01-26T03:44:37;59.33;;;21.27;;
7729;SDS011;3908;52.310;7.230;2023-01-26T03:47:42;58.33;;;22.03;;
7729;SDS011;3908;52.310;7.230;2023-01-26T03:50:48;53.23;;;20.50;;
7729;SDS011;3908;52.310;7.230;2023-01-26T03:53:53;59.97;;;19.97;;
7729;SDS011;3908;52.310;7.230;2023-01-26T03:56:57;64.77;;;22.07;;
7729;SDS011;3908;52.310;7.230;2023-01-26T03:59:44;54.63;;;20.50;;
7729;SDS011;3908;52.310;7.230;2023-01-26T04:02:32;56.37;;;20.17;;
7729;SDS011;3908;52.310;7.230;2023-01-26T04:05:36;47.90;;;18.57;;
7729;SDS011;3908;52.310;7.230;2023-01-26T04:08:49;46.40;;;18.23;;
7729;SDS011;3908;52.310;7.230;2023-01-26T04:11:39;54.13;;;20.03;;
7729;SDS011;3908;52.310;7.230;2023-01-26T04:14:26;52.50;;;19.17;;
7729;SDS011;3908;52.310;7.230;2023-01-26T04:17:33;43.97;;;14.97;;
7729;SDS011;3908;52.310;7.230;2023-01-26T04:20:38;49.97;;;18.70;;
7729;SDS011;3908;52.310;7.230;2023-01-26T04:23:54;46.57;;;17.37;;
7729;SDS011;3908;52.310;7.230;2023-01-26T04:26:42;45.83;;;18.47;;
7729;SDS011;3908;52.310;7.230;2023-01-26T04:29:30;45.20;;;17.67;;
7729;SDS011;3908;52.310;7.230;2023-01-26T04:32:17;45.47;;;18.10;;
7729;SDS011;3908;52.310;7.230;2023-01-26T04:35:08;50.53;;;18.93;;
7729;SDS011;3908;52.310;7.230;2023-01-26T04:37:57;44.77;;;17.07;;
7729;SDS011;3908;52.310;7.230;2023-01-26T04:40:45;40.97;;;15.37;;
7729;SDS011;3908;52.310;7.230;2023-01-26T04:43:39;51.57;;;18.70;;
7729;SDS011;3908;52.310;7.230;2023-01-26T04:46:27;42.37;;;16.10;;
7729;SDS011;3908;52.310;7.230;2023-01-26T04:49:14;41.10;;;15.53;;
7729;SDS011;3908;52.310;7.230;2023-01-26T04:52:01;38.70;;;15.87;;
7729;SDS011;3908;52.310;7.230;2023-01-26T04:54:49;37.83;;;13.63;;
7729;SDS011;3908;52.310;7.230;2023-01-26T04:57:38;37.10;;;14.33;;
7729;SDS011;3908;52.310;7.230;2023-01-26T05:00:25;33.63;;;14.33;;
7729;SDS011;3908;52.310;7.230;2023-01-26T05:03:14;34.70;;;14.30;;
7729;SDS011;3908;52.310;7.230;2023-01-26T05:06:01;37.00;;;13.80;;
7729;SDS011;3908;52.310;7.230;2023-01-26T05:08:49;35.43;;;13.97;;
7729;SDS011;3908;52.310;7.230;2023-01-26T05:11:38;34.63;;;14.23;;
7729;SDS011;3908;52.310;7.230;2023-01-26T05:14:37;37.13;;;13.23;;
7729;SDS011;3908;52.310;7.230;2023-01-26T05:17:24;32.10;;;12.77;;
7729;SDS011;3908;52.310;7.230;2023-01-26T05:20:12;35.87;;;11.93;;
7729;SDS011;3908;52.310;7.230;2023-01-26T05:22:59;32.83;;;12.90;;
7729;SDS011;3908;52.310;7.230;2023-01-26T05:25:46;30.33;;;11.97;;
7729;SDS011;3908;52.310;7.230;2023-01-26T05:28:33;29.73;;;12.70;;
7729;SDS011;3908;52.310;7.230;2023-01-26T05:31:22;29.40;;;12.03;;
7729;SDS011;3908;52.310;7.230;2023-01-26T05:34:09;25.83;;;10.13;;
7729;SDS011;3908;52.310;7.230;2023-01-26T05:36:56;30.47;;;12.80;;
7729;SDS011;3908;52.310;7.230;2023-01-26T05:39:43;27.40;;;11.37;;
7729;SDS011;3908;52.310;7.230;2023-01-26T05:42:30;28.37;;;10.83;;
7729;SDS011;3908;52.310;7.230;2023-01-26T05:45:18;25.90;;;9.67;;
7729;SDS011;3908;52.310;7.230;2023-01-26T05:48:07;26.00;;;10.77;;
7729;SDS011;3908;52.310;7.230;2023-01-26T05:50:54;22.07;;;10.07;;
7729;SDS011;3908;52.310;7.230;2023-01-26T05:53:56;29.73;;;11.23;;
7729;SDS011;3908;52.310;7.230;2023-01-26T05:56:43;23.80;;;10.17;;
7729;SDS011;3908;52.310;7.230;2023-01-26T05:59:31;25.67;;;9.90;;
7729;SDS011;3908;52.310;7.230;2023-01-26T06:02:18;22.13;;;8.93;;
7729;SDS011;3908;52.310;7.230;2023-01-26T06:05:08;31.47;;;12.20;;
7729;SDS011;3908;52.310;7.230;2023-01-26T06:07:56;21.73;;;10.00;;
7729;SDS011;3908;52.310;7.230;2023-01-26T06:10:43;25.93;;;11.07;;
7729;SDS011;3908;52.310;7.230;2023-01-26T06:13:31;22.60;;;9.57;;
7729;SDS011;3908;52.310;7.230;2023-01-26T06:16:18;25.47;;;10.37;;
7729;SDS011;3908;52.310;7.230;2023-01-26T06:19:06;23.43;;;9.40;;
7729;SDS011;3908;52.310;7.230;2023-01-26T06:25:43;23.63;;;8.73;;
7729;SDS011;3908;52.310;7.230;2023-01-26T06:28:30;19.10;;;9.47;;
7729;SDS011;3908;52.310;7.230;2023-01-26T06:31:17;21.30;;;9.20;;
7729;SDS011;3908;52.310;7.230;2023-01-26T06:34:05;18.67;;;7.83;;
7729;SDS011;3908;52.310;7.230;2023-01-26T06:36:52;21.37;;;8.97;;
7729;SDS011;3908;52.310;7.230;2023-01-26T06:39:39;21.47;;;9.10;;
7729;SDS011;3908;52.310;7.230;2023-01-26T06:42:28;21.50;;;9.13;;
7729;SDS011;3908;52.310;7.230;2023-01-26T06:45:16;21.57;;;8.90;;
7729;SDS011;3908;52.310;7.230;2023-01-26T06:48:05;21.93;;;9.37;;
7729;SDS011;3908;52.310;7.230;2023-01-26T06:50:52;23.70;;;9.90;;
7729;SDS011;3908;52.310;7.230;2023-01-26T06:53:43;27.43;;;10.30;;
7729;SDS011;3908;52.310;7.230;2023-01-26T06:56:34;24.07;;;9.83;;
7729;SDS011;3908;52.310;7.230;2023-01-26T06:59:22;24.87;;;9.73;;
7729;SDS011;3908;52.310;7.230;2023-01-26T07:02:11;22.73;;;9.87;;
7729;SDS011;3908;52.310;7.230;2023-01-26T07:05:02;21.73;;;9.23;;
7729;SDS011;3908;52.310;7.230;2023-01-26T07:07:50;20.90;;;8.47;;
7729;SDS011;3908;52.310;7.230;2023-01-26T07:10:38;25.87;;;9.57;;
7729;SDS011;3908;52.310;7.230;2023-01-26T07:13:25;25.03;;;10.07;;
7729;SDS011;3908;52.310;7.230;2023-01-26T07:16:14;25.83;;;10.43;;
7729;SDS011;3908;52.310;7.230;2023-01-26T07:19:02;24.40;;;10.20;;
7729;SDS011;3908;52.310;7.230;2023-01-26T07:21:49;27.23;;;10.53;;
7729;SDS011;3908;52.310;7.230;2023-01-26T07:24:36;26.17;;;10.47;;
7729;SDS011;3908;52.310;7.230;2023-01-26T07:27:23;27.83;;;11.43;;
7729;SDS011;3908;52.310;7.230;2023-01-26T07:30:11;23.53;;;9.97;;
7729;SDS011;3908;52.310;7.230;2023-01-26T07:33:00;25.50;;;10.60;;
7729;SDS011;3908;52.310;7.230;2023-01-26T07:35:47;27.80;;;9.43;;
7729;SDS011;3908;52.310;7.230;2023-01-26T07:38:37;23.90;;;10.37;;
7729;SDS011;3908;52.310;7.230;2023-01-26T07:41:24;22.23;;;9.87;;
7729;SDS011;3908;52.310;7.230;2023-01-26T07:44:12;31.87;;;10.67;;
7729;SDS011;3908;52.310;7.230;2023-01-26T07:46:59;23.53;;;10.87;;
7729;SDS011;3908;52.310;7.230;2023-01-26T07:49:49;28.33;;;10.90;;
7729;SDS011;3908;52.310;7.230;2023-01-26T07:52:38;25.40;;;10.07;;
7729;SDS011;3908;52.310;7.230;2023-01-26T07:55:26;28.00;;;10.67;;
7729;SDS011;3908;52.310;7.230;2023-01-26T07:58:14;27.87;;;10.03;;
7729;SDS011;3908;52.310;7.230;2023-01-26T08:01:07;25.50;;;10.50;;
7729;SDS011;3908;52.310;7.230;2023-01-26T08:03:56;21.37;;;10.40;;
7729;SDS011;3908;52.310;7.230;2023-01-26T08:06:49;27.70;;;9.87;;
7729;SDS011;3908;52.310;7.230;2023-01-26T08:09:36;25.10;;;9.73;;
7729;SDS011;3908;52.310;7.230;2023-01-26T08:12:23;28.30;;;11.30;;
7729;SDS011;3908;52.310;7.230;2023-01-26T08:15:10;22.50;;;9.77;;
7729;SDS011;3908;52.310;7.230;2023-01-26T08:17:58;25.23;;;10.57;;
7729;SDS011;3908;52.310;7.230;2023-01-26T08:20:48;27.87;;;10.33;;
7729;SDS011;3908;52.310;7.230;2023-01-26T08:23:37;26.97;;;10.73;;
7729;SDS011;3908;52.310;7.230;2023-01-26T08:26:25;25.10;;;9.63;;
7729;SDS011;3908;52.310;7.230;2023-01-26T08:29:12;24.60;;;9.80;;
7729;SDS011;3908;52.310;7.230;2023-01-26T08:31:59;31.53;;;10.43;;
7729;SDS011;3908;52.310;7.230;2023-01-26T08:34:46;27.93;;;11.33;;
7729;SDS011;3908;52.310;7.230;2023-01-26T08:37:34;30.63;;;11.43;;
7729;SDS011;3908;52.310;7.230;2023-01-26T08:40:22;27.57;;;10.77;;
7729;SDS011;3908;52.310;7.230;2023-01-26T08:43:10;30.73;;;10.37;;
7729;SDS011;3908;52.310;7.230;2023-01-26T08:45:57;21.07;;;9.20;;
7729;SDS011;3908;52.310;7.230;2023-01-26T08:48:44;24.40;;;10.73;;
7729;SDS011;3908;52.310;7.230;2023-01-26T08:51:35;26.73;;;9.23;;
7729;SDS011;3908;52.310;7.230;2023-01-26T08:54:22;24.23;;;9.73;;
7729;SDS011;3908;52.310;7.230;2023-01-26T08:57:10;30.63;;;10.47;;
7729;SDS011;3908;52.310;7.230;2023-01-26T08:59:58;32.53;;;12.27;;
7729;SDS011;3908;52.310;7.230;2023-01-26T09:02:45;26.00;;;10.70;;
7729;SDS011;3908;52.310;7.230;2023-01-26T09:05:34;25.67;;;10.13;;
7729;SDS011;3908;52.310;7.230;2023-01-26T09:08:23;28.17;;;10.33;;
7729;SDS011;3908;52.310;7.230;2023-01-26T09:11:10;29.47;;;9.73;;
7729;SDS011;3908;52.310;7.230;2023-01-26T09:14:00;32.30;;;10.97;;
7729;SDS011;3908;52.310;7.230;2023-01-26T09:16:47;29.17;;;10.60;;
7729;SDS011;3908;52.310;7.230;2023-01-26T09:19:34;26.77;;;11.07;;
7729;SDS011;3908;52.310;7.230;2023-01-26T09:22:21;27.67;;;10.83;;
7729;SDS011;3908;52.310;7.230;2023-01-26T09:25:08;37.60;;;10.60;;
7729;SDS011;3908;52.310;7.230;2023-01-26T09:27:56;35.23;;;11.17;;
7729;SDS011;3908;52.310;7.230;2023-01-26T09:30:45;29.57;;;10.90;;
7729;SDS011;3908;52.310;7.230;2023-01-26T09:33:32;33.47;;;10.67;;
7729;SDS011;3908;52.310;7.230;2023-01-26T09:36:22;25.33;;;10.00;;
7729;SDS011;3908;52.310;7.230;2023-01-26T09:39:11;33.97;;;11.27;;
7729;SDS011;3908;52.310;7.230;2023-01-26T09:42:02;36.00;;;11.57;;
7729;SDS011;3908;52.310;7.230;2023-01-26T09:45:05;28.40;;;11.33;;
7729;SDS011;3908;52.310;7.230;2023-01-26T09:48:08;35.67;;;13.00;;
7729;SDS011;3908;52.310;7.230;2023-01-26T09:51:04;44.00;;;11.70;;
7729;SDS011;3908;52.310;7.230;2023-01-26T09:53:58;39.70;;;12.60;;
7729;SDS011;3908;52.310;7.230;2023-01-26T09:56:53;30.53;;;11.63;;
7729;SDS011;3908;52.310;7.230;2023-01-26T09:59:45;34.97;;;12.43;;
7729;SDS011;3908;52.310;7.230;2023-01-26T10:02:43;28.20;;;10.63;;
7729;SDS011;3908;52.310;7.230;2023-01-26T10:05:39;39.07;;;11.57;;
7729;SDS011;3908;52.310;7.230;2023-01-26T10:08:31;33.60;;;11.43;;
7729;SDS011;3908;52.310;7.230;2023-01-26T10:11:19;34.07;;;11.50;;
7729;SDS011;3908;52.310;7.230;2023-01-26T10:14:13;27.60;;;10.40;;
7729;SDS011;3908;52.310;7.230;2023-01-26T10:17:06;35.73;;;10.23;;
7729;SDS011;3908;52.310;7.230;2023-01-26T10:20:00;28.90;;;10.20;;
7729;SDS011;3908;52.310;7.230;2023-01-26T10:22:53;35.80;;;11.57;;
7729;SDS011;3908;52.310;7.230;2023-01-26T10:25:43;31.50;;;10.83;;
7729;SDS011;3908;52.310;7.230;2023-01-26T10:28:32;31.30;;;11.50;;
7729;SDS011;3908;52.310;7.230;2023-01-26T10:31:22;33.80;;;11.20;;
7729;SDS011;3908;52.310;7.230;2023-01-26T10:34:12;37.47;;;13.23;;
7729;SDS011;3908;52.310;7.230;2023-01-26T10:37:11;37.27;;;11.00;;
7729;SDS011;3908;52.310;7.230;2023-01-26T10:40:07;31.67;;;12.20;;
7729;SDS011;3908;52.310;7.230;2023-01-26T10:42:55;36.57;;;11.73;;
7729;SDS011;3908;52.310;7.230;2023-01-26T10:45:53;34.63;;;13.13;;
7729;SDS011;3908;52.310;7.230;2023-01-26T10:48:40;47.67;;;14.70;;
7729;SDS011;3908;52.310;7.230;2023-01-26T10:51:38;54.67;;;15.70;;
7729;SDS011;3908;52.310;7.230;2023-01-26T10:54:26;38.00;;;12.43;;
7729;SDS011;3908;52.310;7.230;2023-01-26T10:57:21;42.23;;;14.10;;
7729;SDS011;3908;52.310;7.230;2023-01-26T11:00:18;49.33;;;14.70;;
7729;SDS011;3908;52.310;7.230;2023-01-26T11:03:15;37.43;;;13.50;;
7729;SDS011;3908;52.310;7.230;2023-01-26T11:06:04;49.00;;;15.90;;
7729;SDS011;3908;52.310;7.230;2023-01-26T11:08:52;50.57;;;17.17;;
7729;SDS011;3908;52.310;7.230;2023-01-26T11:11:40;49.03;;;15.70;;
7729;SDS011;3908;52.310;7.230;2023-01-26T11:14:29;45.47;;;15.67;;
7729;SDS011;3908;52.310;7.230;2023-01-26T11:17:18;53.37;;;17.37;;
7729;SDS011;3908;52.310;7.230;2023-01-26T11:20:22;52.80;;;14.70;;
7729;SDS011;3908;52.310;7.230;2023-01-26T11:23:27;47.73;;;13.33;;
7729;SDS011;3908;52.310;7.230;2023-01-26T11:26:44;49.07;;;13.90;;
7729;SDS011;3908;52.310;7.230;2023-01-26T11:33:13;60.23;;;12.97;;
7729;SDS011;3908;52.310;7.230;2023-01-26T11:36:09;58.93;;;15.60;;
7729;SDS011;3908;52.310;7.230;2023-01-26T11:39:08;55.73;;;13.63;;
7729;SDS011;3908;52.310;7.230;2023-01-26T11:42:09;40.20;;;11.63;;
7729;SDS011;3908;52.310;7.230;2023-01-26T11:45:16;43.03;;;13.00;;
7729;SDS011;3908;52.310;7.230;2023-01-26T11:52:00;48.23;;;12.27;;
7729;SDS011;3908;52.310;7.230;2023-01-26T11:58:15;40.60;;;13.17;;
7729;SDS011;3908;52.310;7.230;2023-01-26T12:01:15;45.23;;;12.23;;
7729;SDS011;3908;52.310;7.230;2023-01-26T12:04:11;55.00;;;13.13;;
7729;SDS011;3908;52.310;7.230;2023-01-26T12:07:05;41.93;;;13.07;;
7729;SDS011;3908;52.310;7.230;2023-01-26T12:09:58;40.07;;;12.93;;
7729;SDS011;3908;52.310;7.230;2023-01-26T12:12:49;42.17;;;12.37;;
7729;SDS011;3908;52.310;7.230;2023-01-26T12:15:42;43.63;;;12.50;;
7729;SDS011;3908;52.310;7.230;2023-01-26T12:18:40;38.17;;;11.73;;
7729;SDS011;3908;52.310;7.230;2023-01-26T12:21:32;46.20;;;12.07;;
7729;SDS011;3908;52.310;7.230;2023-01-26T12:24:24;47.03;;;11.93;;
7729;SDS011;3908;52.310;7.230;2023-01-26T12:27:22;50.10;;;14.00;;
7729;SDS011;3908;52.310;7.230;2023-01-26T12:33:46;47.60;;;11.50;;
7729;SDS011;3908;52.310;7.230;2023-01-26T12:36:56;37.20;;;12.00;;
7729;SDS011;3908;52.310;7.230;2023-01-26T12:50:41;38.37;;;9.93;;
7729;SDS011;3908;52.310;7.230;2023-01-26T12:53:32;31.23;;;9.47;;
7729;SDS011;3908;52.310;7.230;2023-01-26T12:56:28;33.97;;;8.33;;
7729;SDS011;3908;52.310;7.230;2023-01-26T12:59:20;42.17;;;9.70;;
7729;SDS011;3908;52.310;7.230;2023-01-26T13:02:20;37.17;;;9.73;;
7729;SDS011;3908;52.310;7.230;2023-01-26T13:05:21;31.43;;;10.87;;
7729;SDS011;3908;52.310;7.230;2023-01-26T13:08:39;40.13;;;10.37;;
7729;SDS011;3908;52.310;7.230;2023-01-26T13:11:46;46.20;;;9.40;;
7729;SDS011;3908;52.310;7.230;2023-01-26T13:14:35;36.17;;;10.43;;
7729;SDS011;3908;52.310;7.230;2023-01-26T13:17:40;40.23;;;9.93;;
7729;SDS011;3908;52.310;7.230;2023-01-26T13:23:35;30.97;;;9.30;;
7729;SDS011;3908;52.310;7.230;2023-01-26T13:26:25;31.93;;;8.00;;
7729;SDS011;3908;52.310;7.230;2023-01-26T13:29:31;32.23;;;9.20;;
7729;SDS011;3908;52.310;7.230;2023-01-26T13:35:49;40.73;;;10.20;;
7729;SDS011;3908;52.310;7.230;2023-01-26T13:38:38;35.43;;;7.77;;
7729;SDS011;3908;52.310;7.230;2023-01-26T13:41:29;33.50;;;6.97;;
7729;SDS011;3908;52.310;7.230;2023-01-26T13:44:17;31.50;;;9.73;;
7729;SDS011;3908;52.310;7.230;2023-01-26T13:47:09;28.73;;;7.90;;
7729;SDS011;3908;52.310;7.230;2023-01-26T13:50:01;34.63;;;7.37;;
7729;SDS011;3908;52.310;7.230;2023-01-26T13:53:28;22.07;;;6.20;;
7729;SDS011;3908;52.310;7.230;2023-01-26T13:56:25;29.20;;;6.93;;
7729;SDS011;3908;52.310;7.230;2023-01-26T13:59:15;29.83;;;6.90;;
7729;SDS011;3908;52.310;7.230;2023-01-26T14:02:09;18.00;;;5.03;;
7729;SDS011;3908;52.310;7.230;2023-01-26T14:05:19;22.23;;;5.00;;
7729;SDS011;3908;52.310;7.230;2023-01-26T14:08:10;24.50;;;5.90;;
7729;SDS011;3908;52.310;7.230;2023-01-26T14:10:59;21.27;;;4.80;;
7729;SDS011;3908;52.310;7.230;2023-01-26T14:13:50;24.63;;;4.97;;
7729;SDS011;3908;52.310;7.230;2023-01-26T14:16:42;22.03;;;5.27;;
7729;SDS011;3908;52.310;7.230;2023-01-26T14:19:29;31.50;;;5.70;;
7729;SDS011;3908;52.310;7.230;2023-01-26T14:22:16;20.13;;;4.47;;
7729;SDS011;3908;52.310;7.230;2023-01-26T14:25:07;24.07;;;6.17;;
7729;SDS011;3908;52.310;7.230;2023-01-26T14:27:55;22.40;;;4.77;;
7729;SDS011;3908;52.310;7.230;2023-01-26T14:30:42;17.97;;;3.77;;
7729;SDS011;3908;52.310;7.230;2023-01-26T14:33:38;20.23;;;4.00;;
7729;SDS011;3908;52.310;7.230;2023-01-26T14:36:27;18.83;;;3.90;;
7729;SDS011;3908;52.310;7.230;2023-01-26T14:39:17;16.40;;;4.00;;
7729;SDS011;3908;52.310;7.230;2023-01-26T14:42:05;20.27;;;4.67;;
7729;SDS011;3908;52.310;7.230;2023-01-26T14:44:52;18.30;;;4.13;;
7729;SDS011;3908;52.310;7.230;2023-01-26T14:47:39;19.43;;;4.63;;
7729;SDS011;3908;52.310;7.230;2023-01-26T14:50:28;17.40;;;4.13;;
7729;SDS011;3908;52.310;7.230;2023-01-26T14:53:17;17.07;;;3.90;;
7729;SDS011;3908;52.310;7.230;2023-01-26T14:56:12;14.33;;;2.97;;
7729;SDS011;3908;52.310;7.230;2023-01-26T14:59:04;12.77;;;3.30;;
7729;SDS011;3908;52.310;7.230;2023-01-26T15:02:00;10.37;;;3.43;;
7729;SDS011;3908;52.310;7.230;2023-01-26T15:04:51;16.67;;;3.43;;
7729;SDS011;3908;52.310;7.230;2023-01-26T15:07:44;14.27;;;4.03;;
7729;SDS011;3908;52.310;7.230;2023-01-26T15:10:35;14.87;;;3.70;;
7729;SDS011;3908;52.310;7.230;2023-01-26T15:13:24;17.30;;;4.00;;
7729;SDS011;3908;52.310;7.230;2023-01-26T15:16:17;16.70;;;3.23;;
7729;SDS011;3908;52.310;7.230;2023-01-26T15:19:05;14.03;;;3.53;;
7729;SDS011;3908;52.310;7.230;2023-01-26T15:21:53;10.87;;;2.50;;
7729;SDS011;3908;52.310;7.230;2023-01-26T15:24:43;10.87;;;3.33;;
7729;SDS011;3908;52.310;7.230;2023-01-26T15:27:32;12.07;;;3.00;;
7729;SDS011;3908;52.310;7.230;2023-01-26T15:30:22;18.93;;;3.30;;
7729;SDS011;3908;52.310;7.230;2023-01-26T15:36:28;16.80;;;2.77;;
7729;SDS011;3908;52.310;7.230;2023-01-26T15:39:17;10.13;;;2.90;;
7729;SDS011;3908;52.310;7.230;2023-01-26T15:42:13;6.50;;;3.30;;
7729;SDS011;3908;52.310;7.230;2023-01-26T15:45:01;10.03;;;2.63;;
7729;SDS011;3908;52.310;7.230;2023-01-26T15:47:49;11.73;;;3.37;;
7729;SDS011;3908;52.310;7.230;2023-01-26T15:50:36;11.73;;;3.03;;
7729;SDS011;3908;52.310;7.230;2023-01-26T15:53:23;6.13;;;2.43;;
7729;SDS011;3908;52.310;7.230;2023-01-26T15:56:11;5.77;;;2.10;;
7729;SDS011;3908;52.310;7.230;2023-01-26T15:59:00;8.50;;;2.37;;
7729;SDS011;3908;52.310;7.230;2023-01-26T16:01:47;12.57;;;2.83;;
7729;SDS011;3908;52.310;7.230;2023-01-26T16:04:34;9.67;;;2.17;;
7729;SDS011;3908;52.310;7.230;2023-01-26T16:07:24;9.60;;;3.43;;
7729;SDS011;3908;52.310;7.230;2023-01-26T16:10:12;10.23;;;3.60;;
7729;SDS011;3908;52.310;7.230;2023-01-26T16:12:59;10.17;;;1.90;;
7729;SDS011;3908;52.310;7.230;2023-01-26T16:15:48;13.70;;;3.03;;
7729;SDS011;3908;52.310;7.230;2023-01-26T16:18:36;8.83;;;2.43;;
7729;SDS011;3908;52.310;7.230;2023-01-26T16:21:23;9.47;;;2.40;;
7729;SDS011;3908;52.310;7.230;2023-01-26T16:24:13;5.70;;;2.30;;
7729;SDS011;3908;52.310;7.230;2023-01-26T16:27:00;11.10;;;3.57;;
7729;SDS011;3908;52.310;7.230;2023-01-26T16:29:47;10.90;;;3.30;;
7729;SDS011;3908;52.310;7.230;2023-01-26T16:32:35;13.87;;;3.70;;
7729;SDS011;3908;52.310;7.230;2023-01-26T16:35:24;10.73;;;2.73;;
7729;SDS011;3908;52.310;7.230;2023-01-26T16:38:13;11.47;;;2.60;;
7729;SDS011;3908;52.310;7.230;2023-01-26T16:41:00;7.87;;;3.00;;
7729;SDS011;3908;52.310;7.230;2023-01-26T16:43:47;10.10;;;3.13;;
7729;SDS011;3908;52.310;7.230;2023-01-26T16:46:35;10.97;;;3.30;;
7729;SDS011;3908;52.310;7.230;2023-01-26T16:49:23;9.63;;;3.00;;
7729;SDS011;3908;52.310;7.230;2023-01-26T16:52:11;6.17;;;3.27;;
7729;SDS011;3908;52.310;7.230;2023-01-26T16:54:58;11.80;;;2.13;;
7729;SDS011;3908;52.310;7.230;2023-01-26T16:57:45;8.80;;;2.83;;
7729;SDS011;3908;52.310;7.230;2023-01-26T17:00:35;8.87;;;3.37;;
7729;SDS011;3908;52.310;7.230;2023-01-26T17:03:22;7.03;;;2.53;;
7729;SDS011;3908;52.310;7.230;2023-01-26T17:06:12;5.23;;;2.30;;
7729;SDS011;3908;52.310;7.230;2023-01-26T17:08:59;7.70;;;2.93;;
7729;SDS011;3908;52.310;7.230;2023-01-26T17:11:46;13.90;;;2.83;;
7729;SDS011;3908;52.310;7.230;2023-01-26T17:14:33;10.00;;;2.20;;
7729;SDS011;3908;52.310;7.230;2023-01-26T17:17:20;8.57;;;2.50;;
7729;SDS011;3908;52.310;7.230;2023-01-26T17:20:09;9.53;;;2.20;;
7729;SDS011;3908;52.310;7.230;2023-01-26T17:22:59;8.70;;;2.67;;
7729;SDS011;3908;52.310;7.230;2023-01-26T17:25:46;4.10;;;2.00;;
7729;SDS011;3908;52.310;7.230;2023-01-26T17:28:33;10.93;;;3.30;;
7729;SDS011;3908;52.310;7.230;2023-01-26T17:31:20;8.30;;;2.87;;
7729;SDS011;3908;52.310;7.230;2023-01-26T17:34:08;4.50;;;2.23;;
7729;SDS011;3908;52.310;7.230;2023-01-26T17:36:55;12.40;;;3.30;;
7729;SDS011;3908;52.310;7.230;2023-01-26T17:39:45;14.00;;;3.23;;
7729;SDS011;3908;52.310;7.230;2023-01-26T17:42:32;11.67;;;2.60;;
7729;SDS011;3908;52.310;7.230;2023-01-26T17:45:20;10.23;;;3.80;;
7729;SDS011;3908;52.310;7.230;2023-01-26T17:48:07;15.53;;;5.73;;
7729;SDS011;3908;52.310;7.230;2023-01-26T17:50:54;9.93;;;4.20;;
7729;SDS011;3908;52.310;7.230;2023-01-26T17:53:42;10.77;;;3.63;;
7729;SDS011;3908;52.310;7.230;2023-01-26T17:56:33;9.37;;;4.33;;
7729;SDS011;3908;52.310;7.230;2023-01-26T17:59:20;6.97;;;2.80;;
7729;SDS011;3908;52.310;7.230;2023-01-26T18:02:08;11.57;;;3.90;;